Time;durP1;ratioP1;P1;durP2;ratioP2;P2;SDS_P1;SDS_P2;PMS_P1;PMS_P2;Temp;Humidity;BMP_temperature;BMP_pressure;BME280_temperature;BME280_humidity;BME280_pressure;Samples;Min_cycle;Max_cycle;Signal;HPM_P1;HPM_P2
2021/03/10 00:00:53;;;;;;;17.35;13.27;;;;;;;;;;4921041;29;20945;-77
2021/03/10 00:03:19;;;;;;;19.57;14.47;;;;;;;;;;4949440;29;20205;-77
2021/03/10 00:05:45;;;;;;;22.05;14.85;;;;;;;;;;4949762;29;20451;-77
2021/03/10 00:08:11;;;;;;;23.33;14.23;;;;;;;;;;4945019;29;20197;-78
2021/03/10 00:10:37;;;;;;;19.00;15.55;;;;;;;;;;4951661;29;20480;-75
2021/03/10 00:13:03;;;;;;;21.27;14.98;;;;;;;;;;4941854;29;20198;-78
2021/03/10 00:15:29;;;;;;;22.25;15.55;;;;;;;;;;4955080;29;20247;-77
2021/03/10 00:17:55;;;;;;;20.73;15.35;;;;;;;;;;4944870;29;20255;-76
2021/03/10 00:20:21;;;;;;;19.48;14.52;;;;;;;;;;4944156;29;20173;-76
2021/03/10 00:22:48;;;;;;;17.50;14.10;;;;;;;;;;4940513;29;20678;-76
2021/03/10 00:25:14;;;;;;;21.75;15.90;;;;;;;;;;4949893;29;20810;-76
2021/03/10 00:27:40;;;;;;;19.58;15.27;;;;;;;;;;4955988;29;20588;-75
2021/03/10 00:30:07;;;;;;;21.42;15.60;;;;;;;;;;4941225;29;20208;-76
2021/03/10 00:32:33;;;;;;;24.55;17.13;;;;;;;;;;4945286;29;20283;-76
2021/03/10 00:35:01;;;;;;;29.50;18.13;;;;;;;;;;4949958;29;20189;-77
2021/03/10 00:37:27;;;;;;;21.77;15.10;;;;;;;;;;4938161;29;20192;-76
2021/03/10 00:39:53;;;;;;;24.13;17.23;;;;;;;;;;4941703;29;20185;-76
2021/03/10 00:42:19;;;;;;;26.90;19.10;;;;;;;;;;4943334;29;20527;-76
2021/03/10 00:44:46;;;;;;;25.33;17.65;;;;;;;;;;4942274;29;20571;-76
2021/03/10 00:47:13;;;;;;;21.65;16.10;;;;;;;;;;4946948;29;20181;-76
2021/03/10 00:49:40;;;;;;;22.05;16.95;;;;;;;;;;4953345;29;20204;-76
2021/03/10 00:52:06;;;;;;;25.80;17.02;;;;;;;;;;4947427;29;20272;-76
2021/03/10 00:54:32;;;;;;;25.17;16.63;;;;;;;;;;4944210;29;20296;-77
2021/03/10 00:56:58;;;;;;;24.33;17.27;;;;;;;;;;4938399;29;20186;-77
2021/03/10 00:59:24;;;;;;;24.77;17.27;;;;;;;;;;4947845;29;20180;-77
2021/03/10 01:01:50;;;;;;;24.80;16.27;;;;;;;;;;4945054;28;20444;-77
2021/03/10 01:04:16;;;;;;;27.08;18.30;;;;;;;;;;4928683;29;20454;-76
2021/03/10 01:06:42;;;;;;;25.00;16.63;;;;;;;;;;4939652;29;20173;-76
2021/03/10 01:09:08;;;;;;;22.17;16.83;;;;;;;;;;4943211;29;20473;-77
2021/03/10 01:11:34;;;;;;;27.33;17.20;;;;;;;;;;4950207;29;21222;-77
2021/03/10 01:14:01;;;;;;;25.40;16.88;;;;;;;;;;4949407;29;20177;-76
2021/03/10 01:16:27;;;;;;;24.85;17.08;;;;;;;;;;4935870;29;20227;-76
2021/03/10 01:18:53;;;;;;;29.35;18.05;;;;;;;;;;4936027;29;20233;-76
2021/03/10 01:21:19;;;;;;;27.20;18.08;;;;;;;;;;4924155;29;20194;-76
2021/03/10 01:23:45;;;;;;;25.85;16.80;;;;;;;;;;4940225;29;20226;-77
2021/03/10 01:26:11;;;;;;;26.58;17.52;;;;;;;;;;4945879;29;20225;-77
2021/03/10 01:28:37;;;;;;;25.60;16.63;;;;;;;;;;4946759;29;20176;-77
2021/03/10 01:31:03;;;;;;;26.80;16.20;;;;;;;;;;4948265;29;20221;-76
2021/03/10 01:33:29;;;;;;;28.33;18.88;;;;;;;;;;4951872;29;20444;-76
2021/03/10 01:35:55;;;;;;;23.53;17.70;;;;;;;;;;4947375;29;20180;-76
2021/03/10 01:38:21;;;;;;;26.00;18.07;;;;;;;;;;4917566;29;20438;-76
2021/03/10 01:40:47;;;;;;;28.60;18.38;;;;;;;;;;4941486;29;20441;-76
2021/03/10 01:43:13;;;;;;;25.20;17.30;;;;;;;;;;4942418;29;20172;-77
2021/03/10 01:45:40;;;;;;;23.40;17.17;;;;;;;;;;4947053;29;20198;-75
2021/03/10 01:48:07;;;;;;;27.30;18.88;;;;;;;;;;4938871;29;20189;-76
2021/03/10 01:50:33;;;;;;;31.40;17.30;;;;;;;;;;4938701;29;20702;-76
2021/03/10 01:52:59;;;;;;;27.52;17.55;;;;;;;;;;4942795;29;20181;-76
2021/03/10 01:55:26;;;;;;;27.63;17.65;;;;;;;;;;4922499;29;20723;-77
2021/03/10 01:57:52;;;;;;;24.67;18.52;;;;;;;;;;4949262;29;20177;-76
2021/03/10 02:00:19;;;;;;;22.08;17.23;;;;;;;;;;4936776;29;20279;-76
2021/03/10 02:02:45;;;;;;;24.00;16.00;;;;;;;;;;4941387;29;20188;-77
2021/03/10 02:05:13;;;;;;;28.38;18.27;;;;;;;;;;4935577;29;20184;-76
2021/03/10 02:07:57;;;;;;;26.67;19.02;;;;;;;;;;4935655;29;20307;-76
2021/03/10 02:10:42;;;;;;;30.98;17.98;;;;;;;;;;4942687;29;20266;-76
2021/03/10 02:13:23;;;;;;;28.67;16.98;;;;;;;;;;4949292;29;20255;-76
2021/03/10 02:16:09;;;;;;;29.48;18.45;;;;;;;;;;4933792;29;20231;-76
2021/03/10 02:19:05;;;;;;;26.52;17.73;;;;;;;;;;4921480;29;20706;-76
2021/03/10 02:21:49;;;;;;;25.67;17.92;;;;;;;;;;4931409;29;20563;-75
2021/03/10 02:24:15;;;;;;;28.70;18.38;;;;;;;;;;4947826;29;20191;-75
2021/03/10 02:26:59;;;;;;;27.47;17.47;;;;;;;;;;4941738;29;20256;-76
2021/03/10 02:29:27;;;;;;;25.42;17.95;;;;;;;;;;4948830;29;20522;-76
2021/03/10 02:31:53;;;;;;;30.20;19.17;;;;;;;;;;4948248;29;20618;-76
2021/03/10 02:34:20;;;;;;;24.50;17.05;;;;;;;;;;4941126;29;20575;-77
2021/03/10 02:36:49;;;;;;;30.67;19.20;;;;;;;;;;4953733;29;20184;-77
2021/03/10 02:39:16;;;;;;;28.27;17.88;;;;;;;;;;4944454;29;20177;-75
2021/03/10 02:41:43;;;;;;;31.30;20.95;;;;;;;;;;4944238;29;20177;-76
2021/03/10 02:44:10;;;;;;;25.95;18.05;;;;;;;;;;4935400;29;20180;-78
2021/03/10 02:46:37;;;;;;;25.23;18.02;;;;;;;;;;4951447;29;20184;-75
2021/03/10 02:49:03;;;;;;;24.23;17.40;;;;;;;;;;4937120;29;20221;-77
2021/03/10 02:51:29;;;;;;;27.75;20.20;;;;;;;;;;4943596;29;20185;-77
2021/03/10 02:53:56;;;;;;;28.65;19.80;;;;;;;;;;4936420;29;20216;-77
2021/03/10 02:56:22;;;;;;;26.35;19.10;;;;;;;;;;4948557;29;20267;-76
2021/03/10 02:58:48;;;;;;;30.83;20.20;;;;;;;;;;4945970;29;20528;-77
2021/03/10 03:01:15;;;;;;;28.73;18.20;;;;;;;;;;4943000;29;20180;-77
2021/03/10 03:03:41;;;;;;;29.48;18.73;;;;;;;;;;4935453;29;20190;-78
2021/03/10 03:06:07;;;;;;;32.65;19.02;;;;;;;;;;4948858;29;20179;-76
2021/03/10 03:08:33;;;;;;;32.10;20.83;;;;;;;;;;4950771;29;20179;-77
2021/03/10 03:11:00;;;;;;;30.67;18.42;;;;;;;;;;4948325;29;20768;-77
2021/03/10 03:13:27;;;;;;;30.23;18.90;;;;;;;;;;4944498;29;20667;-77
2021/03/10 03:15:54;;;;;;;30.88;18.77;;;;;;;;;;4935172;29;20185;-77
2021/03/10 03:18:23;;;;;;;34.08;19.25;;;;;;;;;;4949797;29;20256;-76
2021/03/10 03:20:50;;;;;;;28.17;18.25;;;;;;;;;;4917328;29;20262;-76
2021/03/10 03:23:17;;;;;;;34.83;20.80;;;;;;;;;;4931825;29;20181;-75
2021/03/10 03:25:44;;;;;;;31.65;19.65;;;;;;;;;;4954687;28;20173;-75
2021/03/10 03:28:19;;;;;;;30.02;19.77;;;;;;;;;;4949836;29;20176;-75
2021/03/10 03:30:45;;;;;;;32.83;20.73;;;;;;;;;;4944245;29;20607;-76
2021/03/10 03:33:13;;;;;;;32.90;21.40;;;;;;;;;;4956362;29;20625;-77
2021/03/10 03:35:39;;;;;;;30.20;20.98;;;;;;;;;;4943299;29;20176;-76
2021/03/10 03:38:06;;;;;;;30.23;19.50;;;;;;;;;;4939093;29;20173;-77
2021/03/10 03:40:33;;;;;;;29.30;20.13;;;;;;;;;;4919306;29;20179;-77
2021/03/10 03:42:59;;;;;;;32.97;20.50;;;;;;;;;;4945610;29;20184;-77
2021/03/10 03:45:25;;;;;;;30.23;20.77;;;;;;;;;;4949842;29;20263;-78
2021/03/10 03:47:52;;;;;;;38.17;21.02;;;;;;;;;;4951142;29;20644;-76
2021/03/10 03:50:18;;;;;;;30.25;19.67;;;;;;;;;;4948217;29;20252;-76
2021/03/10 03:52:45;;;;;;;27.10;19.38;;;;;;;;;;4938074;29;20173;-76
2021/03/10 03:55:12;;;;;;;25.42;18.92;;;;;;;;;;4952710;29;20184;-77
2021/03/10 03:57:38;;;;;;;32.63;20.48;;;;;;;;;;4955297;29;20211;-75
2021/03/10 04:00:06;;;;;;;32.20;20.15;;;;;;;;;;4956855;29;20185;-76
2021/03/10 04:02:32;;;;;;;29.45;20.00;;;;;;;;;;4938561;29;20187;-76
2021/03/10 04:04:58;;;;;;;30.55;19.80;;;;;;;;;;4950761;29;20247;-76
2021/03/10 04:07:24;;;;;;;30.60;19.70;;;;;;;;;;4945074;29;20181;-76
2021/03/10 04:09:50;;;;;;;29.40;21.00;;;;;;;;;;4937836;29;20295;-76
2021/03/10 04:12:16;;;;;;;27.83;19.00;;;;;;;;;;4944040;29;20777;-76
2021/03/10 04:14:42;;;;;;;30.05;19.38;;;;;;;;;;4945042;29;20189;-75
2021/03/10 04:17:08;;;;;;;32.17;20.83;;;;;;;;;;4949888;29;20224;-77
2021/03/10 04:19:34;;;;;;;28.87;19.67;;;;;;;;;;4946139;29;20452;-76
2021/03/10 04:22:00;;;;;;;31.70;21.40;;;;;;;;;;4952205;29;20532;-76
2021/03/10 04:24:26;;;;;;;36.10;20.13;;;;;;;;;;4945219;29;20437;-76
2021/03/10 04:26:52;;;;;;;35.93;21.33;;;;;;;;;;4954886;29;20189;-77
2021/03/10 04:29:18;;;;;;;31.67;20.17;;;;;;;;;;4938021;29;20473;-77
2021/03/10 04:31:44;;;;;;;29.87;19.80;;;;;;;;;;4940048;29;20455;-78
2021/03/10 04:34:10;;;;;;;34.33;20.33;;;;;;;;;;4944715;29;20525;-77
2021/03/10 04:36:36;;;;;;;32.45;20.15;;;;;;;;;;4946544;29;20179;-77
2021/03/10 04:39:03;;;;;;;31.70;20.13;;;;;;;;;;4956072;29;20281;-77
2021/03/10 04:41:29;;;;;;;25.25;18.52;;;;;;;;;;4937917;29;20191;-76
2021/03/10 04:43:55;;;;;;;33.05;21.38;;;;;;;;;;4950682;29;20652;-76
2021/03/10 04:46:21;;;;;;;34.07;20.27;;;;;;;;;;4936197;29;20192;-75
2021/03/10 04:48:47;;;;;;;29.30;20.80;;;;;;;;;;4949722;29;20435;-76
2021/03/10 04:51:13;;;;;;;33.67;21.20;;;;;;;;;;4953492;29;20285;-76
2021/03/10 04:53:39;;;;;;;33.33;20.42;;;;;;;;;;4941192;29;20649;-76
2021/03/10 04:56:05;;;;;;;29.53;19.10;;;;;;;;;;4943133;29;20265;-77
2021/03/10 04:58:31;;;;;;;30.75;19.55;;;;;;;;;;4938412;29;20826;-77
2021/03/10 05:00:57;;;;;;;30.67;19.90;;;;;;;;;;4941526;29;20185;-77
2021/03/10 05:03:23;;;;;;;30.87;19.00;;;;;;;;;;4955728;29;20257;-78
2021/03/10 05:05:49;;;;;;;30.38;20.00;;;;;;;;;;4955625;29;20883;-77
2021/03/10 05:08:16;;;;;;;35.63;21.43;;;;;;;;;;4955074;29;20231;-77
2021/03/10 05:10:42;;;;;;;34.03;20.77;;;;;;;;;;4955570;29;20475;-77
2021/03/10 05:13:08;;;;;;;39.33;22.20;;;;;;;;;;4955280;29;20169;-77
2021/03/10 05:15:34;;;;;;;27.90;19.50;;;;;;;;;;4938170;29;20470;-77
2021/03/10 05:18:00;;;;;;;30.57;20.07;;;;;;;;;;4955231;29;20812;-77
2021/03/10 05:23:29;;;;;;;31.17;19.75;;;;;;;;;;4955319;29;20504;-77
2021/03/10 05:25:55;;;;;;;32.13;22.30;;;;;;;;;;4955157;29;20639;-77
2021/03/10 05:28:21;;;;;;;33.37;19.93;;;;;;;;;;4938091;29;20439;-76
2021/03/10 05:30:47;;;;;;;32.00;22.60;;;;;;;;;;4955120;29;20932;-76
2021/03/10 05:33:13;;;;;;;38.35;21.38;;;;;;;;;;4954918;29;20168;-75
2021/03/10 05:38:43;;;;;;;35.78;21.98;;;;;;;;;;4955156;29;20431;-77
2021/03/10 05:41:09;;;;;;;30.98;19.33;;;;;;;;;;4955335;29;20206;-77
2021/03/10 05:43:36;;;;;;;33.13;20.30;;;;;;;;;;4937656;29;20191;-76
2021/03/10 05:46:02;;;;;;;30.45;19.70;;;;;;;;;;4955219;29;20184;-78
2021/03/10 05:48:28;;;;;;;41.53;20.93;;;;;;;;;;4954050;28;20230;-76
2021/03/10 05:50:54;;;;;;;36.05;21.90;;;;;;;;;;4954519;29;20509;-76
2021/03/10 05:53:23;;;;;;;34.40;20.45;;;;;;;;;;4954655;29;20174;-76
2021/03/10 05:55:49;;;;;;;35.80;22.95;;;;;;;;;;4954621;29;20179;-75
2021/03/10 05:58:16;;;;;;;36.33;20.15;;;;;;;;;;4954611;29;20171;-76
2021/03/10 06:00:43;;;;;;;32.22;21.33;;;;;;;;;;4954320;29;20180;-76
2021/03/10 06:03:09;;;;;;;32.88;20.60;;;;;;;;;;4953882;29;20175;-76
2021/03/10 06:08:38;;;;;;;33.35;20.20;;;;;;;;;;4955165;29;20651;-76
2021/03/10 06:11:04;;;;;;;35.83;20.33;;;;;;;;;;4954802;29;20212;-77
2021/03/10 06:13:31;;;;;;;34.50;20.40;;;;;;;;;;4954609;29;20184;-77
2021/03/10 06:15:58;;;;;;;31.02;20.42;;;;;;;;;;4954915;29;20180;-77
2021/03/10 06:18:30;;;;;;;30.52;20.13;;;;;;;;;;4954069;29;20242;-76
2021/03/10 06:24:01;;;;;;;39.60;21.85;;;;;;;;;;4954260;29;20657;-75
2021/03/10 06:26:27;;;;;;;30.05;18.70;;;;;;;;;;4953102;29;20177;-77
2021/03/10 06:28:54;;;;;;;33.17;20.98;;;;;;;;;;4953369;29;20179;-76
2021/03/10 06:31:24;;;;;;;33.40;22.95;;;;;;;;;;4953287;29;20218;-76
2021/03/10 06:33:59;;;;;;;32.53;20.48;;;;;;;;;;4953947;29;20517;-75
2021/03/10 06:36:26;;;;;;;33.63;21.35;;;;;;;;;;4954051;29;20630;-75
2021/03/10 06:38:52;;;;;;;31.30;20.95;;;;;;;;;;4953651;29;20179;-74
2021/03/10 06:41:29;;;;;;;32.45;20.42;;;;;;;;;;4954130;29;20569;-76
2021/03/10 06:43:55;;;;;;;29.73;19.63;;;;;;;;;;4954042;29;20181;-76
2021/03/10 06:46:21;;;;;;;34.00;21.10;;;;;;;;;;4953972;29;20281;-76
2021/03/10 06:48:54;;;;;;;29.95;19.80;;;;;;;;;;4953906;29;20173;-75
2021/03/10 06:51:20;;;;;;;33.08;20.60;;;;;;;;;;4954147;29;20215;-75
2021/03/10 06:53:47;;;;;;;32.55;20.25;;;;;;;;;;4953955;29;20252;-76
2021/03/10 06:56:20;;;;;;;27.75;18.30;;;;;;;;;;4954111;29;20184;-75
2021/03/10 06:58:59;;;;;;;31.02;19.15;;;;;;;;;;4954129;28;20173;-76
2021/03/10 07:01:36;;;;;;;30.98;21.55;;;;;;;;;;4957466;29;20273;-77
2021/03/10 07:04:02;;;;;;;30.80;19.73;;;;;;;;;;4957644;29;20257;-77
2021/03/10 07:06:29;;;;;;;29.25;19.80;;;;;;;;;;4940109;29;20517;-77
2021/03/10 07:08:56;;;;;;;31.02;18.33;;;;;;;;;;4957316;29;20181;-76
2021/03/10 07:11:22;;;;;;;28.83;19.52;;;;;;;;;;4957426;29;20341;-76
2021/03/10 07:13:49;;;;;;;28.25;19.38;;;;;;;;;;4957432;29;20172;-75
2021/03/10 07:16:15;;;;;;;34.33;19.65;;;;;;;;;;4939967;29;20211;-76
2021/03/10 07:18:41;;;;;;;29.55;19.60;;;;;;;;;;4954802;29;20229;-76
2021/03/10 07:24:16;;;;;;;35.80;20.33;;;;;;;;;;4956104;29;20527;-76
2021/03/10 07:26:43;;;;;;;32.00;21.40;;;;;;;;;;4956001;29;20234;-77
2021/03/10 07:29:10;;;;;;;33.33;20.48;;;;;;;;;;4956464;29;20645;-76
2021/03/10 07:31:36;;;;;;;33.30;20.88;;;;;;;;;;4956128;29;20182;-76
2021/03/10 07:39:50;;;;;;;31.58;19.50;;;;;;;;;;4956549;29;20176;-76
2021/03/10 07:42:20;;;;;;;28.73;19.07;;;;;;;;;;4955985;29;20178;-76
2021/03/10 07:44:56;;;;;;;32.30;20.75;;;;;;;;;;4956310;29;20420;-75
2021/03/10 07:47:22;;;;;;;35.17;21.70;;;;;;;;;;4955984;29;20259;-76
2021/03/10 07:49:56;;;;;;;26.40;19.27;;;;;;;;;;4955823;29;20290;-75
2021/03/10 07:52:23;;;;;;;29.77;18.88;;;;;;;;;;4955176;29;20540;-75
2021/03/10 07:54:55;;;;;;;30.10;21.67;;;;;;;;;;4955034;29;20174;-75
2021/03/10 07:57:21;;;;;;;27.15;19.10;;;;;;;;;;4954599;29;20182;-75
2021/03/10 07:59:53;;;;;;;30.75;20.45;;;;;;;;;;4953617;29;20176;-75
2021/03/10 08:02:20;;;;;;;28.70;19.95;;;;;;;;;;4953651;29;20256;-76
2021/03/10 08:04:53;;;;;;;36.75;23.02;;;;;;;;;;4953871;29;20205;-75
2021/03/10 08:07:22;;;;;;;37.45;23.23;;;;;;;;;;4953902;29;20249;-76
2021/03/10 08:09:49;;;;;;;32.42;21.45;;;;;;;;;;4954071;29;20252;-77
2021/03/10 08:12:15;;;;;;;33.58;22.35;;;;;;;;;;4953127;28;20174;-76
2021/03/10 08:14:45;;;;;;;35.75;23.98;;;;;;;;;;4955252;29;20235;-76
2021/03/10 08:17:28;;;;;;;36.25;22.52;;;;;;;;;;4954718;29;20232;-76
2021/03/10 08:19:55;;;;;;;31.63;20.50;;;;;;;;;;4954917;29;20276;-76
2021/03/10 08:22:23;;;;;;;33.40;22.48;;;;;;;;;;4954970;29;20172;-77
2021/03/10 08:24:49;;;;;;;34.35;23.10;;;;;;;;;;4955182;29;20178;-77
2021/03/10 08:27:15;;;;;;;38.10;23.40;;;;;;;;;;4955126;29;20506;-76
2021/03/10 08:29:48;;;;;;;33.10;22.20;;;;;;;;;;4955184;29;20465;-77
2021/03/10 08:32:24;;;;;;;36.38;24.10;;;;;;;;;;4954894;29;20182;-77
2021/03/10 08:34:50;;;;;;;36.22;24.27;;;;;;;;;;4955218;29;20196;-77
2021/03/10 08:37:16;;;;;;;37.40;23.75;;;;;;;;;;4955203;29;20581;-76
2021/03/10 08:39:43;;;;;;;37.85;22.67;;;;;;;;;;4955138;29;20174;-78
2021/03/10 08:42:09;;;;;;;35.90;23.70;;;;;;;;;;4955042;29;20525;-77
2021/03/10 08:44:42;;;;;;;37.90;22.60;;;;;;;;;;4955078;29;20182;-75
2021/03/10 08:47:15;;;;;;;39.42;23.95;;;;;;;;;;4954704;29;20175;-76
2021/03/10 08:49:43;;;;;;;41.53;23.60;;;;;;;;;;4955096;29;20207;-75
2021/03/10 08:52:09;;;;;;;35.88;22.80;;;;;;;;;;4954738;29;20181;-74
2021/03/10 08:54:44;;;;;;;41.17;24.77;;;;;;;;;;4954946;29;20836;-76
2021/03/10 08:57:11;;;;;;;36.67;23.95;;;;;;;;;;4954826;29;20186;-76
2021/03/10 08:59:37;;;;;;;39.60;23.37;;;;;;;;;;4954667;29;20176;-76
2021/03/10 09:02:03;;;;;;;36.30;25.57;;;;;;;;;;4954532;29;20430;-75
2021/03/10 09:04:29;;;;;;;36.33;23.73;;;;;;;;;;4954709;29;20414;-77
2021/03/10 09:10:00;;;;;;;39.60;23.27;;;;;;;;;;4951975;29;20532;-75
2021/03/10 09:12:27;;;;;;;33.97;20.97;;;;;;;;;;4935790;29;20453;-76
2021/03/10 09:14:53;;;;;;;31.43;20.63;;;;;;;;;;4952701;29;20502;-76
2021/03/10 09:17:19;;;;;;;36.60;21.40;;;;;;;;;;4952554;29;20959;-74
2021/03/10 09:19:47;;;;;;;34.97;19.57;;;;;;;;;;4952908;29;20428;-75
2021/03/10 09:25:18;;;;;;;31.30;20.20;;;;;;;;;;4952195;29;20502;-75
2021/03/10 09:27:44;;;;;;;28.67;20.23;;;;;;;;;;4952279;29;20427;-78
2021/03/10 09:30:11;;;;;;;29.17;20.10;;;;;;;;;;4952847;29;20563;-77
2021/03/10 09:32:47;;;;;;;28.13;18.80;;;;;;;;;;4952533;29;20416;-76
2021/03/10 09:35:18;;;;;;;33.70;20.40;;;;;;;;;;4935660;29;20453;-76
2021/03/10 09:37:45;;;;;;;28.27;19.00;;;;;;;;;;4951929;29;20423;-75
2021/03/10 09:40:12;;;;;;;32.80;19.10;;;;;;;;;;4953218;29;20467;-76
2021/03/10 09:42:38;;;;;;;29.87;19.77;;;;;;;;;;4952836;29;20420;-76
2021/03/10 09:45:04;;;;;;;26.13;18.47;;;;;;;;;;4952937;29;20411;-75
2021/03/10 09:47:30;;;;;;;30.77;19.83;;;;;;;;;;4952365;29;20482;-75
2021/03/10 09:49:57;;;;;;;27.73;18.93;;;;;;;;;;4953032;29;20533;-75
2021/03/10 09:55:27;;;;;;;30.70;19.00;;;;;;;;;;4953854;29;20952;-76
2021/03/10 09:58:03;;;;;;;27.23;18.50;;;;;;;;;;4953636;29;20432;-76
2021/03/10 10:00:31;;;;;;;22.60;15.33;;;;;;;;;;4953707;29;20416;-77
2021/03/10 10:02:57;;;;;;;25.93;16.73;;;;;;;;;;4953562;29;20407;-77
2021/03/10 10:05:25;;;;;;;24.50;16.83;;;;;;;;;;4953763;29;20411;-75
2021/03/10 10:07:51;;;;;;;23.97;17.30;;;;;;;;;;4953736;29;20447;-76
2021/03/10 10:10:18;;;;;;;23.90;16.90;;;;;;;;;;4936453;29;20557;-77
2021/03/10 10:12:44;;;;;;;21.00;16.13;;;;;;;;;;4953898;29;20426;-77
2021/03/10 10:15:11;;;;;;;22.60;15.97;;;;;;;;;;4953708;29;20420;-76
2021/03/10 10:17:37;;;;;;;20.43;14.83;;;;;;;;;;4952771;29;20490;-76
2021/03/10 10:20:05;;;;;;;16.30;11.87;;;;;;;;;;4953636;29;20419;-76
2021/03/10 10:25:34;;;;;;;17.40;11.83;;;;;;;;;;4953849;29;20482;-77
2021/03/10 10:28:01;;;;;;;16.30;10.33;;;;;;;;;;4954112;29;20502;-76
2021/03/10 10:30:26;;;;;;;17.37;11.17;;;;;;;;;;4954063;29;20486;-77
2021/03/10 10:32:52;;;;;;;16.13;11.30;;;;;;;;;;4953528;29;20892;-75
2021/03/10 10:35:19;;;;;;;9.37;6.63;;;;;;;;;;4956472;28;20525;-76
2021/03/10 10:40:48;;;;;;;9.40;7.13;;;;;;;;;;4957545;29;20460;-76
2021/03/10 10:43:15;;;;;;;12.43;8.00;;;;;;;;;;4957590;29;20883;-77
2021/03/10 10:45:41;;;;;;;14.13;8.93;;;;;;;;;;4957281;29;20773;-76
2021/03/10 10:48:07;;;;;;;11.33;7.70;;;;;;;;;;4957263;29;20430;-76
2021/03/10 10:50:33;;;;;;;10.23;7.60;;;;;;;;;;4957527;29;20480;-75
2021/03/10 10:52:59;;;;;;;12.70;9.33;;;;;;;;;;4939966;29;20431;-74
2021/03/10 10:55:25;;;;;;;11.67;7.97;;;;;;;;;;4957291;29;20429;-77
2021/03/10 10:57:51;;;;;;;11.93;8.87;;;;;;;;;;4957157;29;20430;-77
2021/03/10 11:00:24;;;;;;;19.67;9.30;;;;;;;;;;4957448;29;20442;-74
2021/03/10 11:02:50;;;;;;;19.20;9.03;;;;;;;;;;4957049;29;20506;-76
2021/03/10 11:05:16;;;;;;;15.53;9.67;;;;;;;;;;4955774;29;20419;-76
2021/03/10 11:10:45;;;;;;;11.93;7.80;;;;;;;;;;4956296;29;20553;-78
2021/03/10 11:13:11;;;;;;;13.73;8.70;;;;;;;;;;4956779;29;20425;-76
2021/03/10 11:15:37;;;;;;;8.10;6.77;;;;;;;;;;4956650;29;20432;-76
2021/03/10 11:18:03;;;;;;;8.27;5.93;;;;;;;;;;4955849;29;20479;-76
2021/03/10 11:20:29;;;;;;;8.77;6.20;;;;;;;;;;4956573;29;20444;-76
2021/03/10 11:26:01;;;;;;;9.27;6.30;;;;;;;;;;4957164;29;20770;-75
2021/03/10 11:28:27;;;;;;;7.27;5.33;;;;;;;;;;4957334;29;20430;-76
2021/03/10 11:30:53;;;;;;;7.97;6.17;;;;;;;;;;4956890;29;20469;-75
2021/03/10 11:33:19;;;;;;;9.87;6.97;;;;;;;;;;4957221;29;20408;-76
2021/03/10 11:35:45;;;;;;;7.50;4.80;;;;;;;;;;4957641;29;20472;-78
2021/03/10 11:41:14;;;;;;;8.53;4.80;;;;;;;;;;4956447;29;20420;-76
2021/03/10 11:43:40;;;;;;;5.57;3.93;;;;;;;;;;4956566;29;20511;-77
2021/03/10 11:46:06;;;;;;;7.20;4.27;;;;;;;;;;4955093;28;20765;-77
2021/03/10 11:48:32;;;;;;;5.07;4.10;;;;;;;;;;4955718;29;20509;-75
2021/03/10 11:50:58;;;;;;;6.87;4.37;;;;;;;;;;4955620;29;20559;-77
2021/03/10 11:53:24;;;;;;;4.73;4.10;;;;;;;;;;4955822;29;20455;-77
2021/03/10 11:55:53;;;;;;;5.60;4.00;;;;;;;;;;4955869;29;20871;-77
2021/03/10 11:58:19;;;;;;;5.50;4.03;;;;;;;;;;4955620;29;20447;-76
2021/03/10 12:00:45;;;;;;;4.97;3.80;;;;;;;;;;4938665;29;20462;-77
2021/03/10 12:03:11;;;;;;;4.77;3.80;;;;;;;;;;4956068;29;20423;-77
2021/03/10 12:05:38;;;;;;;5.63;3.93;;;;;;;;;;4955963;29;20494;-77
2021/03/10 12:11:07;;;;;;;7.03;4.43;;;;;;;;;;4955676;29;20513;-77
2021/03/10 12:13:33;;;;;;;4.80;4.30;;;;;;;;;;4955309;29;20458;-78
2021/03/10 12:16:02;;;;;;;10.23;4.60;;;;;;;;;;4955567;29;20517;-78
2021/03/10 12:18:28;;;;;;;5.37;3.80;;;;;;;;;;4955192;29;20847;-76
2021/03/10 12:20:54;;;;;;;6.20;4.77;;;;;;;;;;4955448;29;20437;-77
2021/03/10 12:26:23;;;;;;;12.13;5.20;;;;;;;;;;4955547;29;20469;-80
2021/03/10 12:28:49;;;;;;;5.17;4.00;;;;;;;;;;4954766;29;20414;-78
2021/03/10 12:31:15;;;;;;;5.03;3.70;;;;;;;;;;4954791;29;20479;-76
2021/03/10 12:33:41;;;;;;;8.70;4.67;;;;;;;;;;4938084;29;20440;-76
2021/03/10 12:36:07;;;;;;;6.80;5.03;;;;;;;;;;4955522;29;20435;-76
2021/03/10 12:41:37;;;;;;;6.37;4.40;;;;;;;;;;4955606;29;20835;-77
2021/03/10 12:44:03;;;;;;;7.67;4.33;;;;;;;;;;4955480;29;20430;-79
2021/03/10 12:46:31;;;;;;;8.43;5.20;;;;;;;;;;4937896;29;20503;-77
2021/03/10 12:48:57;;;;;;;7.07;5.40;;;;;;;;;;4955258;29;20957;-78
2021/03/10 12:51:23;;;;;;;7.77;5.70;;;;;;;;;;4954608;29;20478;-78
2021/03/10 12:53:53;;;;;;;10.10;7.23;;;;;;;;;;4955274;29;20417;-75
2021/03/10 12:56:22;;;;;;;9.30;7.47;;;;;;;;;;4955323;29;20494;-77
2021/03/10 12:58:48;;;;;;;10.40;6.77;;;;;;;;;;4938009;29;20438;-77
2021/03/10 13:01:14;;;;;;;11.43;7.17;;;;;;;;;;4955025;29;20912;-76
2021/03/10 13:03:40;;;;;;;9.20;6.80;;;;;;;;;;4955245;29;20454;-77
2021/03/10 13:06:07;;;;;;;9.57;6.60;;;;;;;;;;4955082;29;20453;-77
2021/03/10 13:11:36;;;;;;;8.83;6.10;;;;;;;;;;4954639;29;20991;-78
2021/03/10 13:14:03;;;;;;;7.13;5.97;;;;;;;;;;4954852;29;20412;-78
2021/03/10 13:16:29;;;;;;;9.17;6.37;;;;;;;;;;4954491;29;20482;-77
2021/03/10 13:18:55;;;;;;;8.10;5.30;;;;;;;;;;4937327;29;20507;-78
2021/03/10 13:21:21;;;;;;;6.87;5.50;;;;;;;;;;4954454;29;20430;-77
2021/03/10 13:26:50;;;;;;;7.00;5.20;;;;;;;;;;4954584;29;20414;-79
2021/03/10 13:29:16;;;;;;;6.70;5.50;;;;;;;;;;4954340;29;20419;-78
2021/03/10 13:31:42;;;;;;;8.07;6.17;;;;;;;;;;4954375;29;20480;-79
2021/03/10 13:34:11;;;;;;;6.70;5.40;;;;;;;;;;4954531;29;20487;-79
2021/03/10 13:36:37;;;;;;;12.03;5.90;;;;;;;;;;4954278;29;20437;-79
2021/03/10 13:39:03;;;;;;;9.87;5.93;;;;;;;;;;4954300;29;20411;-78
2021/03/10 13:41:29;;;;;;;9.60;6.17;;;;;;;;;;4954314;29;20420;-77
2021/03/10 13:43:56;;;;;;;9.00;6.13;;;;;;;;;;4954303;29;20452;-78
2021/03/10 13:46:22;;;;;;;5.80;5.07;;;;;;;;;;4953914;29;20420;-75
2021/03/10 13:48:48;;;;;;;8.30;5.90;;;;;;;;;;4936713;29;20566;-77
2021/03/10 13:51:14;;;;;;;6.70;5.80;;;;;;;;;;4953994;29;20477;-77
2021/03/10 13:56:44;;;;;;;6.67;4.90;;;;;;;;;;4953834;29;20470;-80
2021/03/10 13:59:10;;;;;;;7.47;5.90;;;;;;;;;;4954016;29;20834;-76
2021/03/10 14:01:36;;;;;;;6.60;5.60;;;;;;;;;;4952747;29;20415;-75
2021/03/10 14:04:02;;;;;;;6.50;4.90;;;;;;;;;;4953517;29;20467;-79
2021/03/10 14:06:28;;;;;;;4.40;4.00;;;;;;;;;;4953738;29;20475;-77
2021/03/10 14:11:58;;;;;;;4.60;4.00;;;;;;;;;;4953662;29;20446;-77
2021/03/10 14:14:24;;;;;;;5.83;4.37;;;;;;;;;;4953646;29;20423;-81
2021/03/10 14:16:50;;;;;;;5.77;4.07;;;;;;;;;;4953354;29;20450;-80
2021/03/10 14:19:16;;;;;;;7.33;4.63;;;;;;;;;;4953809;29;20505;-79
2021/03/10 14:27:30;;;;;;;6.50;5.57;;;;;;;;;;4953183;29;20925;-80
2021/03/10 14:29:56;;;;;;;5.57;4.77;;;;;;;;;;4953593;29;20474;-80
2021/03/10 14:32:22;;;;;;;6.27;4.30;;;;;;;;;;4953166;29;20412;-80
2021/03/10 14:34:48;;;;;;;6.43;5.47;;;;;;;;;;4953537;29;20482;-79
2021/03/10 14:37:14;;;;;;;6.97;4.60;;;;;;;;;;4953430;29;20578;-81
2021/03/10 14:39:40;;;;;;;6.03;4.50;;;;;;;;;;4952642;29;20512;-79
2021/03/10 14:42:06;;;;;;;5.90;4.37;;;;;;;;;;4952414;29;20427;-79
2021/03/10 14:44:32;;;;;;;6.40;5.07;;;;;;;;;;4952182;29;20898;-79
2021/03/10 14:46:58;;;;;;;6.53;5.20;;;;;;;;;;4952090;29;20514;-80
2021/03/10 14:49:24;;;;;;;6.50;5.27;;;;;;;;;;4952108;29;20764;-80
2021/03/10 14:51:50;;;;;;;5.43;4.63;;;;;;;;;;4952063;29;20531;-79
2021/03/10 14:57:20;;;;;;;6.40;5.70;;;;;;;;;;4952025;29;20791;-79
2021/03/10 14:59:46;;;;;;;5.20;4.67;;;;;;;;;;4952071;29;20447;-79
2021/03/10 15:02:12;;;;;;;7.30;5.63;;;;;;;;;;4951847;29;20532;-79
2021/03/10 15:04:38;;;;;;;8.10;5.97;;;;;;;;;;4951775;29;20893;-78
2021/03/10 15:07:04;;;;;;;6.30;5.20;;;;;;;;;;4951860;29;20427;-80
2021/03/10 15:09:30;;;;;;;5.60;4.50;;;;;;;;;;4952270;29;20415;-80
2021/03/10 15:11:56;;;;;;;5.97;5.17;;;;;;;;;;4951860;29;20643;-79
2021/03/10 15:14:22;;;;;;;6.93;5.67;;;;;;;;;;4950007;29;20467;-79
2021/03/10 15:16:48;;;;;;;5.93;4.40;;;;;;;;;;4932351;29;20428;-78
2021/03/10 15:19:14;;;;;;;4.57;3.70;;;;;;;;;;4950203;29;20903;-78
2021/03/10 15:21:40;;;;;;;4.20;3.63;;;;;;;;;;4953084;28;20416;-78
2021/03/10 15:27:10;;;;;;;6.70;4.27;;;;;;;;;;4953634;29;20985;-76
2021/03/10 15:29:36;;;;;;;7.63;5.67;;;;;;;;;;4953322;29;20411;-77
2021/03/10 15:32:02;;;;;;;4.67;3.90;;;;;;;;;;4953303;29;20953;-78
2021/03/10 15:34:28;;;;;;;6.80;4.60;;;;;;;;;;4953671;29;20653;-76
2021/03/10 15:36:54;;;;;;;5.17;4.40;;;;;;;;;;4954100;29;20470;-77
2021/03/10 15:42:24;;;;;;;6.57;4.80;;;;;;;;;;4953972;29;20425;-77
2021/03/10 15:44:50;;;;;;;7.77;4.87;;;;;;;;;;4953833;29;20423;-76